Time;durP1;ratioP1;P1;durP2;ratioP2;P2;SDS_P1;SDS_P2;PMS_P1;PMS_P2;Temp;Humidity;BMP_temperature;BMP_pressure;BME280_temperature;BME280_humidity;BME280_pressure;Samples;Min_cycle;Max_cycle;Signal;HPM_P1;HPM_P2
2023/04/19 00:00:56;;;;;;;11.23;7.40;;;;;;;13.28;100.00;101303.38;2081911;28;20577;-63
2023/04/19 00:01:56;;;;;;;8.20;7.40;;;;;;;13.28;100.00;101300.59;2082286;28;20191;-63
2023/04/19 00:02:57;;;;;;;12.10;7.60;;;;;;;13.28;100.00;101300.59;2081856;28;20546;-63
2023/04/19 00:03:58;;;;;;;9.93;7.07;;;;;;;13.28;100.00;101297.81;2082550;28;20585;-63
2023/04/19 00:04:58;;;;;;;11.73;7.90;;;;;;;13.29;100.00;101300.16;2081740;28;20209;-63
2023/04/19 00:05:58;;;;;;;10.23;7.67;;;;;;;13.26;100.00;101294.66;2082019;28;20172;-63
2023/04/19 00:06:59;;;;;;;11.63;6.90;;;;;;;13.28;100.00;101295.00;2082523;28;20176;-63
2023/04/19 00:07:59;;;;;;;11.57;6.93;;;;;;;13.28;100.00;101304.13;2082013;28;20181;-62
2023/04/19 00:09:00;;;;;;;8.97;7.27;;;;;;;13.28;100.00;101297.81;2082086;28;20192;-63
2023/04/19 00:10:00;;;;;;;12.23;7.77;;;;;;;13.29;100.00;101299.34;2082084;28;20594;-63
2023/04/19 00:11:00;;;;;;;13.20;8.17;;;;;;;13.29;100.00;101286.25;2081629;28;20634;-63
2023/04/19 00:12:02;;;;;;;12.43;7.43;;;;;;;13.29;100.00;101293.78;2082316;28;20585;-63
2023/04/19 00:13:02;;;;;;;12.93;7.73;;;;;;;13.29;100.00;101293.78;2082296;28;20646;-64
2023/04/19 00:14:03;;;;;;;10.77;8.00;;;;;;;13.28;100.00;101289.44;2082327;28;20428;-63
2023/04/19 00:15:04;;;;;;;10.83;7.80;;;;;;;13.29;100.00;101291.81;2082199;28;20276;-63
2023/04/19 00:16:05;;;;;;;9.63;7.60;;;;;;;13.26;100.00;101297.44;2081540;28;20188;-63
2023/04/19 00:17:06;;;;;;;13.57;7.43;;;;;;;13.25;100.00;101282.75;2081938;28;20468;-63
2023/04/19 00:18:06;;;;;;;9.17;7.93;;;;;;;13.26;100.00;101295.44;2081918;28;20495;-63
2023/04/19 00:19:06;;;;;;;10.27;7.60;;;;;;;13.24;100.00;101292.31;2082033;28;20573;-63
2023/04/19 00:20:08;;;;;;;8.70;7.30;;;;;;;13.23;100.00;101295.53;2081749;28;20235;-63
2023/04/19 00:21:09;;;;;;;14.90;7.80;;;;;;;13.20;100.00;101291.63;2081870;28;20588;-63
2023/04/19 00:22:09;;;;;;;9.30;7.50;;;;;;;13.19;100.00;101287.28;2082316;28;20420;-63
2023/04/19 00:23:10;;;;;;;9.70;7.67;;;;;;;13.19;100.00;101287.28;2081709;28;20194;-64
2023/04/19 00:24:10;;;;;;;10.47;7.67;;;;;;;13.18;100.00;101291.28;2082129;28;20186;-63
2023/04/19 00:25:10;;;;;;;10.43;7.23;;;;;;;13.17;100.00;101291.72;2082112;28;20193;-63
2023/04/19 00:26:14;;;;;;;10.47;7.17;;;;;;;13.09;100.00;101279.16;2082156;28;20182;-63
2023/04/19 00:27:14;;;;;;;10.53;7.10;;;;;;;13.17;100.00;101286.91;2082022;28;20185;-63
2023/04/19 00:28:15;;;;;;;9.97;6.97;;;;;;;13.18;100.00;101290.47;2082484;28;20417;-64
2023/04/19 00:29:15;;;;;;;12.27;7.57;;;;;;;13.16;100.00;101295.72;2082043;28;20174;-64
2023/04/19 00:30:15;;;;;;;9.20;7.13;;;;;;;13.16;100.00;101299.25;2082104;28;20202;-63
2023/04/19 00:31:16;;;;;;;10.03;7.23;;;;;;;12.96;100.00;101261.59;2082181;28;20175;-63
2023/04/19 00:32:16;;;;;;;10.87;6.80;;;;;;;12.75;100.00;101229.47;2082075;28;20193;-63
2023/04/19 00:33:17;;;;;;;8.00;6.50;;;;;;;13.19;100.00;101300.41;2081982;28;20272;-63
2023/04/19 00:34:17;;;;;;;10.03;6.93;;;;;;;13.19;100.00;101292.84;2081693;28;20190;-63
2023/04/19 00:35:18;;;;;;;14.83;7.10;;;;;;;13.21;100.00;101289.63;2081916;28;20188;-63
2023/04/19 00:36:18;;;;;;;8.17;6.63;;;;;;;13.18;100.00;101293.28;2080482;28;20202;-63
2023/04/19 00:37:18;;;;;;;9.47;6.87;;;;;;;13.20;100.00;101293.59;2081980;28;20587;-63
2023/04/19 00:38:19;;;;;;;10.17;7.50;;;;;;;13.18;100.00;101288.50;2082126;28;20247;-63
2023/04/19 00:39:19;;;;;;;12.90;6.70;;;;;;;13.18;100.00;101291.28;2081404;28;20577;-63
2023/04/19 00:40:19;;;;;;;8.83;6.83;;;;;;;13.14;100.00;101287.78;2081775;28;20619;-63
2023/04/19 00:41:20;;;;;;;12.07;7.30;;;;;;;13.16;100.00;101290.16;2081310;28;20237;-63
2023/04/19 00:42:20;;;;;;;9.17;6.70;;;;;;;13.18;100.00;101291.28;2081789;28;20185;-63
2023/04/19 00:43:21;;;;;;;10.20;7.33;;;;;;;13.13;100.00;101280.66;2082162;28;20602;-64
2023/04/19 00:44:21;;;;;;;12.73;7.27;;;;;;;13.17;100.00;101288.94;2081960;28;20705;-63
2023/04/19 00:45:22;;;;;;;13.90;7.13;;;;;;;13.14;100.00;101285.00;2081900;28;20175;-63
2023/04/19 00:46:23;;;;;;;9.43;7.20;;;;;;;13.14;100.00;101290.56;2082166;28;20182;-63
2023/04/19 00:47:23;;;;;;;10.80;7.13;;;;;;;13.16;100.00;101290.16;2081353;28;20647;-63
2023/04/19 00:48:24;;;;;;;9.43;7.70;;;;;;;13.18;100.00;101290.47;2081862;28;20430;-63
2023/04/19 00:49:26;;;;;;;10.83;7.20;;;;;;;13.18;100.00;101296.84;2081984;28;20176;-63
2023/04/19 00:50:27;;;;;;;11.20;7.13;;;;;;;13.21;100.00;101287.63;2081871;28;20435;-63
2023/04/19 00:51:28;;;;;;;11.47;6.73;;;;;;;13.18;100.00;101287.69;2081600;28;20537;-64
2023/04/19 00:52:28;;;;;;;16.10;7.87;;;;;;;13.17;100.00;101286.91;2081124;28;20929;-63
2023/04/19 00:53:29;;;;;;;10.87;7.57;;;;;;;13.19;100.00;101280.91;2081721;28;20629;-62
2023/04/19 00:54:31;;;;;;;9.80;7.03;;;;;;;13.17;100.00;101286.91;2073339;28;20178;-63
2023/04/19 00:55:32;;;;;;;12.63;7.50;;;;;;;13.19;100.00;101286.47;2080374;28;21011;-63
2023/04/19 00:56:33;;;;;;;10.20;7.57;;;;;;;13.16;100.00;101282.56;2081536;28;20490;-63
2023/04/19 00:57:35;;;;;;;8.40;7.30;;;;;;;13.17;100.00;101278.56;2081142;28;20283;-63
2023/04/19 00:58:37;;;;;;;9.83;7.10;;;;;;;12.61;100.00;101190.84;2081209;28;20445;-63
2023/04/19 00:59:37;;;;;;;14.67;7.90;;;;;;;13.15;100.00;101281.00;2081762;28;20521;-63
2023/04/19 01:00:38;;;;;;;12.00;7.10;;;;;;;13.03;100.00;101259.44;2081388;28;20416;-63
2023/04/19 01:01:39;;;;;;;15.87;8.43;;;;;;;13.15;100.00;101278.22;2081536;28;20241;-63
2023/04/19 01:02:39;;;;;;;9.47;7.07;;;;;;;13.13;100.00;101280.66;2082096;28;20607;-63
2023/04/19 01:03:40;;;;;;;13.30;6.93;;;;;;;12.29;100.00;101149.09;2081255;28;20345;-63
2023/04/19 01:04:40;;;;;;;10.37;7.00;;;;;;;13.07;100.00;101257.34;2075192;28;20221;-63
2023/04/19 01:05:41;;;;;;;16.53;7.50;;;;;;;13.12;100.00;101267.94;2078652;28;20254;-63
2023/04/19 01:06:41;;;;;;;12.33;7.07;;;;;;;13.12;100.00;101270.72;2081661;28;20243;-63
2023/04/19 01:07:42;;;;;;;13.23;6.93;;;;;;;12.91;100.00;101242.63;2081506;28;20204;-63
2023/04/19 01:08:43;;;;;;;10.23;6.97;;;;;;;13.12;100.00;101270.72;2081580;28;20171;-63
2023/04/19 01:09:44;;;;;;;9.80;6.67;;;;;;;12.78;100.00;101227.81;2081689;28;20264;-63
2023/04/19 01:10:44;;;;;;;11.47;7.03;;;;;;;13.08;100.00;101269.25;2081810;28;20248;-64
2023/04/19 01:11:45;;;;;;;9.33;6.73;;;;;;;13.13;100.00;101268.75;2080992;28;20523;-63
2023/04/19 01:12:45;;;;;;;11.00;7.30;;;;;;;13.14;100.00;101268.31;2081740;28;20177;-64
2023/04/19 01:13:46;;;;;;;10.20;6.90;;;;;;;13.14;100.00;101259.97;2081574;28;20196;-63
2023/04/19 01:14:46;;;;;;;9.50;6.97;;;;;;;13.15;100.00;101267.09;2081519;28;20194;-63
2023/04/19 01:15:46;;;;;;;11.90;7.20;;;;;;;13.18;100.00;101260.66;2081195;28;20262;-63
2023/04/19 01:16:47;;;;;;;10.83;7.23;;;;;;;12.88;100.00;101210.88;2081314;28;20278;-63
2023/04/19 01:17:47;;;;;;;14.03;7.07;;;;;;;13.19;100.00;101255.88;2081102;28;20175;-63
2023/04/19 01:18:48;;;;;;;9.47;7.13;;;;;;;13.17;100.00;101256.28;2080386;28;20192;-63
2023/04/19 01:19:48;;;;;;;7.77;6.53;;;;;;;13.17;100.00;101259.06;2080801;28;20588;-63
2023/04/19 01:20:49;;;;;;;10.13;6.73;;;;;;;13.18;100.00;101260.66;2081296;28;20741;-63
2023/04/19 01:21:51;;;;;;;12.83;7.13;;;;;;;13.12;100.00;101242.91;2081343;28;20205;-64
2023/04/19 01:22:51;;;;;;;11.27;7.10;;;;;;;13.17;100.00;101247.94;2081430;28;20749;-63
2023/04/19 01:23:52;;;;;;;10.57;6.80;;;;;;;13.19;100.00;101258.66;2080758;28;20455;-64
2023/04/19 01:24:52;;;;;;;9.80;6.97;;;;;;;12.45;100.00;101138.00;2080979;28;20208;-63
2023/04/19 01:25:53;;;;;;;8.53;6.97;;;;;;;13.20;100.00;101243.50;2080913;28;20185;-63
2023/04/19 01:26:53;;;;;;;8.20;6.70;;;;;;;13.20;100.00;101254.66;2081841;28;20261;-63
2023/04/19 01:27:54;;;;;;;9.73;7.10;;;;;;;13.18;100.00;101243.16;2081367;28;20226;-63
2023/04/19 01:28:54;;;;;;;8.10;7.17;;;;;;;13.18;100.00;101255.09;2081832;28;20204;-63
2023/04/19 01:29:54;;;;;;;10.50;6.77;;;;;;;13.03;100.00;101231.63;2081359;28;20180;-63
2023/04/19 01:30:55;;;;;;;9.00;7.10;;;;;;;12.91;100.00;101196.09;2081089;28;20282;-63
2023/04/19 01:31:55;;;;;;;9.30;7.00;;;;;;;13.20;100.00;101243.50;2081443;28;20181;-63
2023/04/19 01:32:56;;;;;;;12.20;6.67;;;;;;;13.20;100.00;101238.75;2081353;28;20679;-63
2023/04/19 01:33:56;;;;;;;13.83;7.63;;;;;;;13.19;100.00;101237.19;2081392;28;20176;-63
2023/04/19 01:34:57;;;;;;;9.93;6.80;;;;;;;13.21;100.00;101237.50;2081777;28;20181;-63
2023/04/19 01:35:57;;;;;;;12.53;7.07;;;;;;;13.18;100.00;101243.97;2080695;28;20204;-63
2023/04/19 01:36:58;;;;;;;10.00;7.40;;;;;;;13.17;100.00;101236.81;2081582;28;20193;-63
2023/04/19 01:37:58;;;;;;;11.57;6.90;;;;;;;13.15;100.00;101235.69;2080955;28;20201;-63
2023/04/19 01:38:59;;;;;;;8.17;6.90;;;;;;;13.16;100.00;101237.28;2081437;28;20205;-63
2023/04/19 01:39:59;;;;;;;10.00;6.73;;;;;;;13.13;100.00;101230.56;2080959;28;20197;-63
2023/04/19 01:41:00;;;;;;;12.80;6.70;;;;;;;13.14;100.00;101239.69;2081301;28;20201;-63
2023/04/19 01:42:01;;;;;;;10.80;7.30;;;;;;;13.13;100.00;101236.13;2081121;28;20189;-63
2023/04/19 01:43:02;;;;;;;14.57;7.40;;;;;;;13.10;100.00;101228.66;2081739;28;20177;-63
2023/04/19 01:44:02;;;;;;;9.30;6.97;;;;;;;12.42;100.00;101125.00;2081379;28;21037;-63
2023/04/19 01:45:04;;;;;;;10.87;7.00;;;;;;;13.14;100.00;101231.34;2081248;28;20184;-63
2023/04/19 01:46:04;;;;;;;12.13;7.80;;;;;;;13.09;100.00;101238.22;2081198;28;20257;-63
2023/04/19 01:47:05;;;;;;;11.10;7.00;;;;;;;13.12;100.00;101231.78;2080922;28;20439;-63
2023/04/19 01:48:05;;;;;;;10.03;7.00;;;;;;;13.13;100.00;101225.00;2081011;28;20192;-63
2023/04/19 01:49:06;;;;;;;8.00;6.87;;;;;;;13.15;100.00;101224.53;2081352;28;20230;-64
2023/04/19 01:50:07;;;;;;;10.63;6.90;;;;;;;13.17;100.00;101224.91;2080885;28;20170;-63
2023/04/19 01:51:08;;;;;;;9.93;7.03;;;;;;;13.12;100.00;101220.63;2081312;28;20179;-63
2023/04/19 01:52:08;;;;;;;9.33;6.73;;;;;;;13.14;100.00;101221.00;2081427;28;20296;-63
2023/04/19 01:53:08;;;;;;;9.80;6.60;;;;;;;13.15;100.00;101222.56;2081386;28;20191;-63
2023/04/19 01:54:09;;;;;;;14.80;6.93;;;;;;;13.16;100.00;101215.00;2081185;28;20277;-63
2023/04/19 01:55:09;;;;;;;8.10;6.90;;;;;;;13.17;100.00;101222.13;2081366;28;20200;-63
2023/04/19 01:56:09;;;;;;;13.33;7.00;;;;;;;13.16;100.00;101218.56;2080995;28;20178;-63
2023/04/19 01:57:10;;;;;;;8.37;6.87;;;;;;;13.18;100.00;101216.13;2081190;28;20218;-64
2023/04/19 01:58:10;;;;;;;10.47;6.77;;;;;;;12.85;100.00;101158.09;2080893;28;20173;-63
2023/04/19 01:59:11;;;;;;;12.30;7.00;;;;;;;13.18;100.00;101216.13;2080815;28;20624;-64
2023/04/19 02:00:12;;;;;;;10.27;6.70;;;;;;;13.18;100.00;101218.91;2080814;28;20643;-63
2023/04/19 02:01:12;;;;;;;12.07;7.20;;;;;;;13.16;100.00;101215.00;2081174;28;20636;-64
2023/04/19 02:02:12;;;;;;;11.60;7.37;;;;;;;13.15;100.00;101217.00;2080825;28;20203;-64
2023/04/19 02:03:13;;;;;;;9.50;7.10;;;;;;;13.15;100.00;101211.44;2081252;28;20195;-64
2023/04/19 02:04:13;;;;;;;10.53;7.00;;;;;;;13.11;100.00;101210.72;2080769;28;20166;-63
2023/04/19 02:05:14;;;;;;;12.07;7.10;;;;;;;13.14;100.00;101212.66;2080866;28;20700;-63
2023/04/19 02:06:15;;;;;;;10.43;6.77;;;;;;;13.14;100.00;101214.66;2081417;28;20651;-63
2023/04/19 02:07:15;;;;;;;10.17;7.00;;;;;;;13.14;100.00;101209.06;2073869;28;20261;-64
2023/04/19 02:08:15;;;;;;;12.90;7.30;;;;;;;13.12;100.00;101212.28;2079233;28;20207;-64
2023/04/19 02:09:16;;;;;;;8.37;6.70;;;;;;;13.11;100.00;101207.19;2081271;28;20246;-64
2023/04/19 02:10:16;;;;;;;12.07;7.03;;;;;;;13.11;100.00;101210.72;2081093;28;20260;-64
2023/04/19 02:11:17;;;;;;;10.63;6.50;;;;;;;12.23;100.00;101072.22;2078241;28;20225;-64
2023/04/19 02:12:17;;;;;;;11.07;6.70;;;;;;;13.10;100.00;101205.59;2074519;28;20171;-63
2023/04/19 02:13:17;;;;;;;10.27;6.93;;;;;;;13.08;100.00;101208.84;2081272;28;20185;-64
2023/04/19 02:14:18;;;;;;;14.40;7.07;;;;;;;13.08;100.00;101206.06;2081417;28;20318;-63
2023/04/19 02:15:18;;;;;;;9.37;7.17;;;;;;;12.89;100.00;101181.06;2088550;28;20217;-63
2023/04/19 02:16:19;;;;;;;11.80;7.27;;;;;;;13.05;100.00;101209.69;2083270;28;20651;-63
2023/04/19 02:17:19;;;;;;;8.70;7.07;;;;;;;13.04;100.00;101196.22;2080613;28;20214;-63
2023/04/19 02:18:19;;;;;;;12.73;7.20;;;;;;;12.98;100.00;101198.75;2081340;28;20194;-64
2023/04/19 02:19:20;;;;;;;9.43;7.17;;;;;;;13.02;100.00;101207.75;2081249;28;20184;-63
2023/04/19 02:20:20;;;;;;;10.70;7.53;;;;;;;13.03;100.00;101208.56;2081033;28;20173;-64
2023/04/19 02:21:20;;;;;;;8.93;7.30;;;;;;;12.98;100.00;101186.81;2080651;28;20173;-64
2023/04/19 02:22:21;;;;;;;7.60;6.80;;;;;;;13.05;100.00;101200.56;2081534;28;20166;-64
2023/04/19 02:23:21;;;;;;;8.60;6.87;;;;;;;13.07;100.00;101200.91;2081067;28;20191;-63
2023/04/19 02:24:23;;;;;;;10.83;6.73;;;;;;;13.07;100.00;101198.91;2081127;28;20187;-63
2023/04/19 02:25:24;;;;;;;11.37;6.97;;;;;;;13.01;100.00;101183.19;2080942;28;20190;-64
2023/04/19 02:26:24;;;;;;;15.70;7.13;;;;;;;12.18;100.00;101069.97;2080810;28;21129;-63
2023/04/19 02:27:25;;;;;;;12.87;7.20;;;;;;;13.06;100.00;101200.13;2081283;28;20174;-63
2023/04/19 02:28:25;;;;;;;11.17;6.77;;;;;;;13.03;100.00;101203.78;2081176;28;20181;-63
2023/04/19 02:29:26;;;;;;;13.33;7.40;;;;;;;13.05;100.00;101194.97;2081361;28;20597;-63
2023/04/19 02:30:27;;;;;;;14.43;6.63;;;;;;;13.02;100.00;101198.66;2080629;28;20213;-63
2023/04/19 02:31:27;;;;;;;15.27;7.10;;;;;;;13.04;100.00;101196.22;2080796;28;20580;-63
2023/04/19 02:32:27;;;;;;;10.13;6.40;;;;;;;12.93;100.00;101182.56;2081088;28;20188;-62
2023/04/19 02:33:28;;;;;;;9.13;7.10;;;;;;;13.03;100.00;101195.44;2081127;28;20280;-63
2023/04/19 02:34:28;;;;;;;12.83;7.30;;;;;;;12.96;100.00;101181.69;2081160;28;20188;-63
2023/04/19 02:35:29;;;;;;;11.33;7.27;;;;;;;12.58;100.00;101130.56;2080959;28;20253;-64
2023/04/19 02:36:29;;;;;;;12.33;7.07;;;;;;;13.05;100.00;101200.56;2081126;28;20186;-63
2023/04/19 02:37:30;;;;;;;10.47;7.30;;;;;;;12.99;100.00;101183.63;2081100;28;20201;-63
2023/04/19 02:38:30;;;;;;;14.07;7.10;;;;;;;13.05;100.00;101192.19;2080801;28;20766;-63
2023/04/19 02:39:30;;;;;;;15.43;7.60;;;;;;;12.41;100.00;101094.84;2081114;28;20675;-63
2023/04/19 02:40:31;;;;;;;10.83;6.63;;;;;;;13.03;100.00;101198.22;2080726;28;20193;-64
2023/04/19 02:41:31;;;;;;;12.93;6.83;;;;;;;12.99;100.00;101193.94;2080448;28;20793;-63
2023/04/19 02:42:32;;;;;;;11.87;7.90;;;;;;;13.01;100.00;101192.28;2080064;28;20695;-63
2023/04/19 02:43:32;;;;;;;10.53;6.50;;;;;;;13.04;100.00;101194.22;2080984;28;20185;-63
2023/04/19 02:44:33;;;;;;;9.77;7.20;;;;;;;12.94;100.00;101180.53;2081049;28;20184;-63
2023/04/19 02:45:33;;;;;;;11.23;7.30;;;;;;;12.97;100.00;101190.81;2081105;28;20244;-63
2023/04/19 02:46:34;;;;;;;12.90;7.47;;;;;;;12.96;100.00;101187.25;2081189;28;20189;-63
2023/04/19 02:47:34;;;;;;;11.03;7.40;;;;;;;12.59;100.00;101126.56;2080616;28;20188;-62
2023/04/19 02:48:35;;;;;;;11.03;6.90;;;;;;;12.94;100.00;101181.31;2080899;28;20194;-63
2023/04/19 02:49:36;;;;;;;10.63;7.20;;;;;;;12.95;100.00;101182.09;2081202;28;20615;-63
2023/04/19 02:50:37;;;;;;;10.07;6.97;;;;;;;12.26;100.00;101080.50;2080827;28;20195;-63
2023/04/19 02:51:37;;;;;;;10.73;7.47;;;;;;;12.90;100.00;101191.75;2080971;28;20422;-63
2023/04/19 02:52:38;;;;;;;9.47;7.20;;;;;;;12.15;100.00;101071.63;2081034;28;20265;-64
2023/04/19 02:53:39;;;;;;;9.00;6.90;;;;;;;12.92;100.00;101191.31;2080888;28;20203;-63
2023/04/19 02:54:39;;;;;;;11.67;6.97;;;;;;;12.19;100.00;101077.13;2081291;28;20181;-63
2023/04/19 02:55:39;;;;;;;9.33;6.50;;;;;;;12.88;100.00;101188.63;2080633;28;20680;-63
2023/04/19 02:56:40;;;;;;;14.27;7.53;;;;;;;12.87;100.00;101177.94;2075133;28;20273;-63
2023/04/19 02:57:40;;;;;;;10.73;7.03;;;;;;;12.87;100.00;101175.16;2077153;28;20694;-63
2023/04/19 02:58:41;;;;;;;11.17;7.73;;;;;;;12.85;100.00;101183.94;2080323;28;20572;-64
2023/04/19 02:59:41;;;;;;;11.80;7.73;;;;;;;12.86;100.00;101182.69;2080464;28;20659;-63
2023/04/19 03:00:41;;;;;;;11.00;7.53;;;;;;;12.74;100.00;101158.38;2080591;28;20187;-63
2023/04/19 03:01:42;;;;;;;9.93;7.00;;;;;;;12.88;100.00;101180.28;2081064;28;20608;-63
2023/04/19 03:02:42;;;;;;;11.57;6.90;;;;;;;12.85;100.00;101177.56;2081089;28;20219;-63
2023/04/19 03:03:43;;;;;;;10.27;7.10;;;;;;;12.85;100.00;101174.78;2080434;28;20206;-63
2023/04/19 03:04:43;;;;;;;10.43;7.40;;;;;;;12.86;100.00;101184.72;2080886;28;20185;-64
2023/04/19 03:05:44;;;;;;;11.30;7.03;;;;;;;12.85;100.00;101172.00;2080331;28;20193;-63
2023/04/19 03:06:44;;;;;;;16.93;7.50;;;;;;;12.84;100.00;101173.22;2080856;28;20178;-63
2023/04/19 03:07:44;;;;;;;9.67;6.87;;;;;;;12.83;100.00;101177.22;2080783;28;20182;-63
2023/04/19 03:08:45;;;;;;;11.30;8.23;;;;;;;12.80;100.00;101178.13;2080931;28;20269;-63
2023/04/19 03:09:45;;;;;;;9.50;7.27;;;;;;;12.81;100.00;101177.66;2080980;28;20696;-63
2023/04/19 03:10:46;;;;;;;13.50;7.37;;;;;;;12.81;100.00;101171.31;2080382;28;20288;-63
2023/04/19 03:11:46;;;;;;;11.33;7.73;;;;;;;12.36;100.00;101104.50;2080891;28;20223;-63
2023/04/19 03:12:47;;;;;;;14.27;7.83;;;;;;;12.82;100.00;101170.88;2080631;28;20193;-63
2023/04/19 03:13:47;;;;;;;8.00;7.00;;;;;;;12.84;100.00;101171.25;2080873;28;20250;-63
2023/04/19 03:14:48;;;;;;;11.57;7.80;;;;;;;12.82;100.00;101168.09;2077796;28;20191;-63
2023/04/19 03:15:49;;;;;;;14.00;8.43;;;;;;;12.80;100.00;101176.09;2073555;28;20260;-63
2023/04/19 03:16:49;;;;;;;11.97;7.77;;;;;;;12.79;100.00;101168.97;2080883;28;20180;-63
2023/04/19 03:17:50;;;;;;;13.33;8.17;;;;;;;12.79;100.00;101165.41;2080983;28;20511;-63
2023/04/19 03:18:50;;;;;;;14.70;7.40;;;;;;;12.82;100.00;101167.31;2080926;28;20292;-63
2023/04/19 03:19:51;;;;;;;11.13;7.90;;;;;;;12.68;100.00;101142.63;2074725;28;20606;-63
2023/04/19 03:20:51;;;;;;;13.47;7.57;;;;;;;12.81;100.00;101166.53;2077333;28;20767;-63
2023/04/19 03:21:52;;;;;;;12.30;8.63;;;;;;;12.81;100.00;101169.31;2076954;28;20570;-63
2023/04/19 03:22:52;;;;;;;11.63;7.83;;;;;;;12.80;100.00;101167.00;2075473;28;20586;-63
2023/04/19 03:23:54;;;;;;;11.87;8.17;;;;;;;12.69;100.00;101152.53;2081061;28;20580;-63
2023/04/19 03:24:54;;;;;;;12.90;7.57;;;;;;;12.70;100.00;101154.13;2080529;28;20263;-63
2023/04/19 03:25:58;;;;;;;17.00;8.03;;;;;;;12.73;100.00;101161.59;2080112;28;20429;-63
2023/04/19 03:26:58;;;;;;;16.93;7.83;;;;;;;12.78;100.00;101166.63;2080204;28;20652;-63
2023/04/19 03:27:59;;;;;;;15.43;8.70;;;;;;;12.74;100.00;101169.50;2080533;28;20833;-64
2023/04/19 03:29:00;;;;;;;22.30;8.70;;;;;;;12.77;100.00;101168.63;2080881;28;20180;-63
2023/04/19 03:30:00;;;;;;;19.20;9.03;;;;;;;12.79;100.00;101168.97;2080279;28;20190;-63
2023/04/19 03:31:01;;;;;;;18.07;8.93;;;;;;;12.80;100.00;101173.31;2080740;28;20448;-63
2023/04/19 03:32:02;;;;;;;18.53;8.40;;;;;;;12.78;100.00;101166.63;2079584;28;20234;-63
2023/04/19 03:33:02;;;;;;;18.40;8.20;;;;;;;12.78;100.00;101174.97;2080544;28;20177;-63
2023/04/19 03:34:02;;;;;;;20.87;9.43;;;;;;;12.76;100.00;101171.84;2080871;28;20181;-64
2023/04/19 03:35:03;;;;;;;14.97;8.13;;;;;;;12.77;100.00;101171.41;2080812;28;20183;-63
2023/04/19 03:36:04;;;;;;;13.13;9.17;;;;;;;12.14;100.00;101078.38;2080501;28;20211;-63
2023/04/19 03:37:04;;;;;;;17.43;8.77;;;;;;;12.76;100.00;101172.63;2080926;28;20204;-64
2023/04/19 03:38:05;;;;;;;15.73;9.80;;;;;;;12.78;100.00;101175.75;2080730;28;20283;-63
2023/04/19 03:39:06;;;;;;;14.10;9.23;;;;;;;12.80;100.00;101173.31;2081115;28;20174;-63
2023/04/19 03:40:07;;;;;;;15.43;8.43;;;;;;;12.84;100.00;101178.78;2080459;28;20180;-63
2023/04/19 03:41:18;;;;;;;14.23;8.80;;;;;;;11.79;100.00;101015.31;2080153;28;20630;-63
2023/04/19 03:42:18;;;;;;;13.73;8.50;;;;;;;12.77;100.00;101165.84;2080770;28;20404;-63
2023/04/19 03:43:18;;;;;;;14.53;8.80;;;;;;;12.83;100.00;101168.88;2080858;28;20411;-63
2023/04/19 03:44:19;;;;;;;12.47;8.90;;;;;;;12.47;100.00;101113.34;2080639;28;20301;-64
2023/04/19 03:45:19;;;;;;;11.50;8.80;;;;;;;12.82;100.00;101170.88;2080411;28;20272;-63
2023/04/19 03:46:20;;;;;;;14.30;9.00;;;;;;;12.83;100.00;101175.25;2080711;28;20203;-63
2023/04/19 03:47:20;;;;;;;13.37;8.57;;;;;;;12.26;100.00;101083.28;2080546;28;20280;-63
2023/04/19 03:48:21;;;;;;;10.90;8.70;;;;;;;11.76;100.00;101002.31;2080449;28;20190;-63
2023/04/19 03:49:21;;;;;;;16.33;9.00;;;;;;;12.86;100.00;101168.78;2080881;28;20243;-64
2023/04/19 03:50:21;;;;;;;13.73;8.73;;;;;;;12.85;100.00;101167.22;2080619;28;20168;-63
2023/04/19 03:51:22;;;;;;;14.67;8.60;;;;;;;12.80;100.00;101164.97;2080871;28;20771;-63
2023/04/19 03:52:24;;;;;;;15.07;8.97;;;;;;;12.84;100.00;101164.88;2080844;28;20177;-63
2023/04/19 03:53:25;;;;;;;11.83;9.20;;;;;;;12.84;100.00;101167.66;2080539;28;20636;-63
2023/04/19 03:54:25;;;;;;;12.20;9.23;;;;;;;12.86;100.00;101168.03;2080505;28;20435;-63
2023/04/19 03:55:26;;;;;;;15.87;10.00;;;;;;;12.67;100.00;101136.31;2080199;28;20273;-63
2023/04/19 03:56:26;;;;;;;15.23;9.10;;;;;;;12.83;100.00;101169.69;2080686;28;20493;-63
2023/04/19 03:57:27;;;;;;;18.40;10.10;;;;;;;12.83;100.00;101163.31;2080745;28;20302;-63
2023/04/19 03:58:27;;;;;;;14.77;9.60;;;;;;;12.82;100.00;101164.53;2080770;28;20219;-63
2023/04/19 03:59:28;;;;;;;14.13;9.20;;;;;;;12.80;100.00;101167.00;2080904;28;20187;-63
2023/04/19 04:00:28;;;;;;;14.20;8.47;;;;;;;12.78;100.00;101161.06;2080152;28;20227;-64
2023/04/19 04:01:28;;;;;;;13.40;7.60;;;;;;;12.77;100.00;101168.63;2079792;28;20247;-62
2023/04/19 04:02:29;;;;;;;15.17;8.50;;;;;;;12.74;100.00;101166.72;2079201;28;20204;-63
2023/04/19 04:03:29;;;;;;;18.83;8.47;;;;;;;12.26;100.00;101097.19;2075516;28;20284;-63
2023/04/19 04:04:29;;;;;;;16.63;8.83;;;;;;;12.71;100.00;101166.81;2075941;28;20194;-63
2023/04/19 04:05:30;;;;;;;14.53;9.07;;;;;;;12.71;100.00;101172.38;2071742;28;20317;-63
2023/04/19 04:06:30;;;;;;;19.00;10.00;;;;;;;12.72;100.00;101169.16;2067543;28;20679;-63
2023/04/19 04:07:31;;;;;;;14.83;10.07;;;;;;;12.71;100.00;101170.34;2074980;28;20715;-63
2023/04/19 04:08:31;;;;;;;14.57;9.57;;;;;;;12.70;100.00;101168.78;2077335;28;20588;-63
2023/04/19 04:09:31;;;;;;;16.70;9.67;;;;;;;12.70;100.00;101171.56;2075848;28;20573;-64
2023/04/19 04:10:32;;;;;;;15.60;9.57;;;;;;;12.38;100.00;101127.06;2079901;28;20649;-63
2023/04/19 04:11:32;;;;;;;16.60;9.93;;;;;;;12.71;100.00;101183.50;2077657;28;20185;-63
2023/04/19 04:12:33;;;;;;;19.03;10.00;;;;;;;12.70;100.00;101176.38;2076727;28;20277;-63
2023/04/19 04:13:33;;;;;;;19.07;10.30;;;;;;;12.71;100.00;101178.69;2080087;28;20177;-63
2023/04/19 04:14:34;;;;;;;15.90;10.03;;;;;;;12.65;100.00;101157.41;2080426;28;20607;-64
2023/04/19 04:15:34;;;;;;;12.27;10.20;;;;;;;12.73;100.00;101183.81;2078370;28;20204;-63
2023/04/19 04:16:35;;;;;;;13.73;9.53;;;;;;;12.68;100.00;101167.66;2077763;28;20747;-63
2023/04/19 04:17:35;;;;;;;14.80;9.70;;;;;;;12.72;100.00;101169.16;2074385;28;20236;-64
2023/04/19 04:18:35;;;;;;;16.17;10.20;;;;;;;12.66;100.00;101158.97;2079274;28;20213;-64
2023/04/19 04:19:36;;;;;;;14.37;10.27;;;;;;;12.37;100.00;101110.81;2077570;28;20193;-63
2023/04/19 04:20:36;;;;;;;16.93;10.93;;;;;;;12.64;100.00;101148.28;2076704;28;20185;-63
2023/04/19 04:21:36;;;;;;;16.40;10.40;;;;;;;12.75;100.00;101167.50;2076513;28;20273;-63
2023/04/19 04:22:41;;;;;;;15.47;10.63;;;;;;;12.76;100.00;101166.28;2078922;28;20670;-63
2023/04/19 04:23:42;;;;;;;14.33;10.70;;;;;;;12.10;100.00;101061.00;2076027;28;20233;-63
2023/04/19 04:24:42;;;;;;;18.33;10.83;;;;;;;12.72;100.00;101162.81;2077036;28;20574;-63
2023/04/19 04:25:43;;;;;;;14.73;10.67;;;;;;;11.93;100.00;101042.00;2075926;28;20186;-63
2023/04/19 04:26:43;;;;;;;19.80;11.20;;;;;;;12.73;100.00;101162.38;2077246;28;20477;-63
2023/04/19 04:27:44;;;;;;;18.63;10.97;;;;;;;12.32;100.00;101117.69;2077751;28;20643;-63
2023/04/19 04:28:45;;;;;;;20.27;11.63;;;;;;;12.75;100.00;101159.94;2075577;28;20638;-64
2023/04/19 04:29:45;;;;;;;17.73;12.03;;;;;;;12.75;100.00;101162.72;2076637;28;20223;-63
2023/04/19 04:30:46;;;;;;;17.33;11.23;;;;;;;12.78;100.00;101163.84;2076711;28;20192;-63
2023/04/19 04:31:46;;;;;;;15.23;11.17;;;;;;;12.78;100.00;101164.63;2076802;28;20199;-63
2023/04/19 04:32:50;;;;;;;15.53;10.80;;;;;;;12.79;100.00;101159.84;2081595;28;20271;-64
2023/04/19 04:33:52;;;;;;;16.70;11.40;;;;;;;12.78;100.00;101156.28;2077042;28;20566;-64
2023/04/19 04:34:52;;;;;;;21.13;11.20;;;;;;;12.78;100.00;101156.28;2081192;28;20451;-63
2023/04/19 04:35:54;;;;;;;15.43;10.63;;;;;;;12.84;100.00;101162.09;2079708;28;20446;-63